createdAt,value
2023-04-16T00:00:57.699Z,3.93
2023-04-16T00:03:29.752Z,4.33
2023-04-16T00:06:01.954Z,4.00
2023-04-16T00:08:35.664Z,4.27
2023-04-16T00:11:07.593Z,4.13
2023-04-16T00:13:39.371Z,4.40
2023-04-16T00:16:11.360Z,3.97
2023-04-16T00:18:43.222Z,4.63
2023-04-16T00:21:15.649Z,4.47
2023-04-16T00:23:47.386Z,4.80
2023-04-16T00:26:18.995Z,4.33
2023-04-16T00:28:51.460Z,4.03
2023-04-16T00:31:33.896Z,4.20
2023-04-16T00:34:08.315Z,4.00
2023-04-16T00:36:40.006Z,4.47
2023-04-16T00:39:11.743Z,4.47
2023-04-16T00:41:44.254Z,3.73
2023-04-16T00:44:15.990Z,4.23
2023-04-16T00:46:47.897Z,5.73
2023-04-16T00:49:20.032Z,4.33
2023-04-16T00:51:51.850Z,4.80
2023-04-16T00:54:26.252Z,4.83
2023-04-16T00:56:59.776Z,4.50
2023-04-16T00:59:32.501Z,4.70
2023-04-16T01:02:04.266Z,4.67
2023-04-16T01:04:36.647Z,4.40
2023-04-16T01:07:08.447Z,5.17
2023-04-16T01:09:40.148Z,5.73
2023-04-16T01:12:11.861Z,4.87
2023-04-16T01:14:44.048Z,4.60
2023-04-16T01:17:15.849Z,5.37
2023-04-16T01:19:47.543Z,5.23
2023-04-16T01:22:19.347Z,5.07
2023-04-16T01:24:51.027Z,4.90
2023-04-16T01:27:22.652Z,5.00
2023-04-16T01:29:56.327Z,5.27
2023-04-16T01:32:40.993Z,5.87
2023-04-16T01:35:13.603Z,5.33
2023-04-16T01:37:45.309Z,5.70
2023-04-16T01:40:18.780Z,5.67
2023-04-16T01:42:51.600Z,5.13
2023-04-16T01:45:25.872Z,4.63
2023-04-16T01:47:57.599Z,5.67
2023-04-16T01:50:30.242Z,5.33
2023-04-16T01:53:04.919Z,5.67
2023-04-16T01:55:36.910Z,6.10
2023-04-16T01:58:10.968Z,6.20
2023-04-16T02:00:43.207Z,6.30
2023-04-16T02:03:17.635Z,6.53
2023-04-16T02:05:49.647Z,7.53
2023-04-16T02:08:21.291Z,6.90
2023-04-16T02:10:53.490Z,6.73
2023-04-16T02:13:26.172Z,7.10
2023-04-16T02:15:58.304Z,7.50
2023-04-16T02:18:47.919Z,8.23
2023-04-16T02:21:20.957Z,6.93
2023-04-16T02:23:53.037Z,8.63
2023-04-16T02:26:31.321Z,7.93
2023-04-16T02:29:09.530Z,8.87
2023-04-16T02:31:47.089Z,9.10
2023-04-16T02:34:19.169Z,9.70
2023-04-16T02:36:50.865Z,10.30
2023-04-16T02:39:22.612Z,8.80
2023-04-16T02:41:54.369Z,9.93
2023-04-16T02:44:26.203Z,10.10
2023-04-16T02:46:57.968Z,10.17
2023-04-16T02:49:29.711Z,10.70
2023-04-16T02:52:01.439Z,10.43
2023-04-16T02:54:33.928Z,10.57
2023-04-16T02:57:06.130Z,9.83
2023-04-16T02:59:38.623Z,10.87
2023-04-16T03:02:10.341Z,10.27
2023-04-16T03:04:42.599Z,9.93
2023-04-16T03:07:14.515Z,10.73
2023-04-16T03:09:46.245Z,10.40
2023-04-16T03:12:18.049Z,11.00
2023-04-16T03:14:52.524Z,10.83
2023-04-16T03:17:24.271Z,10.07
2023-04-16T03:19:55.967Z,10.90
2023-04-16T03:22:27.701Z,10.17
2023-04-16T03:24:59.334Z,10.90
2023-04-16T03:27:31.156Z,10.37
2023-04-16T03:30:04.734Z,11.50
2023-04-16T03:32:40.717Z,11.67
2023-04-16T03:35:12.824Z,11.63
2023-04-16T03:37:44.593Z,11.47
2023-04-16T03:40:16.302Z,11.50
2023-04-16T03:42:48.190Z,12.03
2023-04-16T03:45:19.841Z,11.60
2023-04-16T03:47:54.171Z,11.27
2023-04-16T03:50:28.718Z,11.50
2023-04-16T03:53:00.476Z,11.83
2023-04-16T03:55:32.222Z,13.00
2023-04-16T03:58:04.948Z,12.30
2023-04-16T04:00:37.679Z,11.27
2023-04-16T04:03:18.708Z,12.03
2023-04-16T04:05:52.774Z,12.90
2023-04-16T04:08:34.695Z,12.37
2023-04-16T04:11:08.265Z,12.53
2023-04-16T04:13:40.814Z,11.73
2023-04-16T04:16:12.957Z,12.73
2023-04-16T04:18:44.782Z,13.03
2023-04-16T04:21:16.820Z,13.63
2023-04-16T04:23:48.518Z,13.17
2023-04-16T04:26:20.159Z,13.57
2023-04-16T04:28:51.955Z,13.80
2023-04-16T04:31:24.000Z,12.90
2023-04-16T04:33:55.738Z,13.37
2023-04-16T04:36:27.514Z,13.03
2023-04-16T04:38:59.892Z,12.77
2023-04-16T04:41:33.187Z,12.77
2023-04-16T04:44:06.554Z,13.13
2023-04-16T04:46:39.977Z,12.63
2023-04-16T04:49:11.969Z,13.17
2023-04-16T04:51:43.837Z,13.23
2023-04-16T04:54:15.721Z,12.43
2023-04-16T04:56:48.306Z,14.13
2023-04-16T04:59:21.689Z,14.93
2023-04-16T05:01:53.972Z,14.70
2023-04-16T05:04:25.946Z,15.27
2023-04-16T05:06:57.631Z,15.43
2023-04-16T05:09:29.325Z,15.97
2023-04-16T05:12:01.235Z,15.43
2023-04-16T05:14:34.193Z,16.40
2023-04-16T05:17:08.076Z,16.57
2023-04-16T05:19:39.953Z,15.87
2023-04-16T05:22:12.694Z,17.73
2023-04-16T05:24:45.372Z,16.47
2023-04-16T05:27:17.019Z,16.93
2023-04-16T05:29:48.713Z,16.73
2023-04-16T05:32:20.475Z,17.00
2023-04-16T05:34:52.205Z,16.67
2023-04-16T05:37:23.951Z,18.53
2023-04-16T05:39:55.735Z,17.80
2023-04-16T05:42:27.389Z,17.27
2023-04-16T05:44:59.178Z,16.83
2023-04-16T05:47:30.982Z,17.13
2023-04-16T05:50:03.592Z,16.67
2023-04-16T05:52:36.123Z,16.70
2023-04-16T05:55:08.238Z,17.37
2023-04-16T05:57:39.923Z,16.63
2023-04-16T06:00:12.040Z,18.93
2023-04-16T06:02:44.056Z,18.50
2023-04-16T06:05:15.879Z,16.67
2023-04-16T06:07:47.694Z,16.03
2023-04-16T06:10:19.362Z,15.77
2023-04-16T06:12:51.231Z,15.43
2023-04-16T06:15:22.959Z,17.03
2023-04-16T06:17:56.070Z,14.63
2023-04-16T06:20:28.159Z,14.90
2023-04-16T06:22:59.860Z,17.20
2023-04-16T06:25:32.325Z,15.07
2023-04-16T06:28:05.038Z,13.03
2023-04-16T06:30:36.813Z,14.37
2023-04-16T06:33:08.796Z,14.10
2023-04-16T06:35:40.919Z,13.60
2023-04-16T06:38:12.664Z,13.40
2023-04-16T06:40:44.618Z,13.07
2023-04-16T06:43:17.851Z,14.20
2023-04-16T06:45:50.283Z,13.07
2023-04-16T06:48:21.921Z,12.97
2023-04-16T06:50:54.960Z,14.07
2023-04-16T06:53:26.627Z,13.57
2023-04-16T06:55:58.399Z,13.67
2023-04-16T06:58:30.273Z,15.00
2023-04-16T07:01:02.724Z,13.80
2023-04-16T07:03:35.481Z,14.10
2023-04-16T07:06:07.614Z,13.67
2023-04-16T07:08:39.239Z,14.87
2023-04-16T07:11:11.001Z,14.43
2023-04-16T07:13:42.674Z,15.43
2023-04-16T07:16:14.501Z,15.00
2023-04-16T07:18:46.238Z,15.67
2023-04-16T07:21:18.134Z,15.23
2023-04-16T07:23:49.817Z,14.13
2023-04-16T07:26:21.578Z,14.10
2023-04-16T07:28:53.247Z,16.13
2023-04-16T07:31:24.955Z,15.10
2023-04-16T07:33:56.625Z,14.67
2023-04-16T07:36:29.725Z,15.77
2023-04-16T07:39:02.399Z,15.27
2023-04-16T07:41:34.375Z,15.57
2023-04-16T07:44:06.153Z,14.40
2023-04-16T07:46:46.295Z,16.33
2023-04-16T07:49:18.886Z,15.53
2023-04-16T07:51:50.730Z,15.17
2023-04-16T07:54:22.386Z,15.90
2023-04-16T07:56:54.026Z,15.00
2023-04-16T07:59:26.213Z,15.70
2023-04-16T08:01:58.394Z,16.50
2023-04-16T08:04:30.574Z,15.27
2023-04-16T08:07:02.499Z,15.00
2023-04-16T08:09:35.862Z,14.50
2023-04-16T08:12:07.594Z,14.77
2023-04-16T08:14:41.250Z,14.37
2023-04-16T08:17:14.420Z,16.20
2023-04-16T08:19:46.261Z,14.93
2023-04-16T08:22:19.172Z,14.50
2023-04-16T08:24:50.870Z,14.97
2023-04-16T08:27:22.593Z,14.93
2023-04-16T08:29:54.260Z,14.17
2023-04-16T08:32:27.235Z,14.20
2023-04-16T08:34:59.623Z,14.33
2023-04-16T08:37:31.326Z,15.40
2023-04-16T08:40:03.970Z,14.30
2023-04-16T08:42:56.214Z,15.10
2023-04-16T08:45:28.173Z,15.27
2023-04-16T08:48:01.964Z,15.80
2023-04-16T08:50:35.018Z,14.87
2023-04-16T08:53:14.046Z,13.37
2023-04-16T08:55:51.381Z,15.60
2023-04-16T08:58:29.656Z,14.70
2023-04-16T09:01:05.415Z,15.03
2023-04-16T09:03:37.821Z,14.00
2023-04-16T09:06:09.976Z,14.57
2023-04-16T09:08:44.714Z,15.13
2023-04-16T09:13:52.370Z,15.50
2023-04-16T09:16:25.215Z,14.17
2023-04-16T09:18:57.013Z,13.57
2023-04-16T09:21:29.034Z,14.57
2023-04-16T09:24:02.263Z,13.47
2023-04-16T09:26:34.517Z,14.03
2023-04-16T09:29:06.691Z,14.93
2023-04-16T09:31:38.425Z,15.97
2023-04-16T09:34:10.314Z,14.87
2023-04-16T09:36:42.069Z,14.80
2023-04-16T09:39:22.535Z,15.07
2023-04-16T09:41:55.120Z,15.47
2023-04-16T09:44:41.097Z,13.57
2023-04-16T09:47:12.885Z,14.37
2023-04-16T09:49:45.621Z,15.50
2023-04-16T09:52:21.103Z,15.97
2023-04-16T09:54:54.018Z,15.98
2023-04-16T09:57:26.176Z,14.97
2023-04-16T10:00:07.822Z,16.47
2023-04-16T10:02:42.905Z,14.50
2023-04-16T10:05:18.606Z,15.67
2023-04-16T10:07:51.045Z,16.47
2023-04-16T10:10:23.614Z,15.47
2023-04-16T10:12:55.798Z,15.40
2023-04-16T10:15:28.083Z,14.13
2023-04-16T10:18:00.408Z,15.73
2023-04-16T10:20:32.353Z,15.60
2023-04-16T10:23:04.354Z,15.93
2023-04-16T10:25:37.970Z,16.43
2023-04-16T10:28:10.365Z,16.57
2023-04-16T10:30:52.694Z,15.90
2023-04-16T10:33:30.202Z,15.37
2023-04-16T10:36:12.374Z,16.63
2023-04-16T10:38:50.973Z,16.40
2023-04-16T10:41:22.820Z,15.93
2023-04-16T10:44:06.611Z,16.57
2023-04-16T10:46:40.597Z,16.73
2023-04-16T10:49:24.520Z,16.40
2023-04-16T10:52:02.238Z,15.63
2023-04-16T10:54:36.723Z,16.20
2023-04-16T10:57:15.005Z,16.70
2023-04-16T10:59:49.205Z,17.90
2023-04-16T11:02:21.211Z,16.75
2023-04-16T11:04:57.685Z,16.63
2023-04-16T11:07:35.113Z,15.97
2023-04-16T11:10:12.744Z,17.33
2023-04-16T11:12:48.550Z,15.13
2023-04-16T11:15:20.287Z,17.27
2023-04-16T11:17:52.711Z,16.07
2023-04-16T11:20:27.080Z,15.10
2023-04-16T11:22:58.994Z,16.52
2023-04-16T11:25:31.857Z,16.07
2023-04-16T11:28:03.688Z,18.40
2023-04-16T11:30:38.380Z,17.10
2023-04-16T11:33:12.377Z,16.27
2023-04-16T11:35:45.856Z,16.57
2023-04-16T11:38:18.787Z,17.20
2023-04-16T11:40:51.537Z,17.97
2023-04-16T11:43:23.277Z,16.43
2023-04-16T11:46:01.628Z,17.80
2023-04-16T11:48:52.505Z,17.10
2023-04-16T11:51:24.292Z,17.13
2023-04-16T11:53:56.254Z,17.23
2023-04-16T11:56:30.986Z,17.03
2023-04-16T11:59:17.980Z,16.33
2023-04-16T12:01:57.610Z,17.43
2023-04-16T12:04:29.901Z,17.60
2023-04-16T12:07:09.781Z,17.43
2023-04-16T12:09:44.776Z,17.90
2023-04-16T12:12:32.129Z,17.60
2023-04-16T12:15:05.240Z,17.27
2023-04-16T12:17:38.609Z,16.73
2023-04-16T12:20:15.779Z,16.97
2023-04-16T12:22:49.637Z,16.80
2023-04-16T12:25:24.822Z,16.70
2023-04-16T12:27:58.087Z,17.00
2023-04-16T12:30:31.036Z,17.90
2023-04-16T12:33:19.528Z,16.60
2023-04-16T12:35:51.764Z,15.97
2023-04-16T12:38:24.626Z,15.90
2023-04-16T12:40:57.785Z,16.33
2023-04-16T12:43:29.699Z,15.87
2023-04-16T12:46:04.136Z,14.47
2023-04-16T12:48:36.281Z,15.13
2023-04-16T12:51:08.181Z,14.37
2023-04-16T12:53:40.137Z,14.23
2023-04-16T12:56:11.994Z,13.50
2023-04-16T12:58:43.784Z,13.53
2023-04-16T13:01:15.537Z,13.80
2023-04-16T13:03:48.796Z,13.77
2023-04-16T13:06:21.224Z,13.27
2023-04-16T13:08:57.048Z,12.73
2023-04-16T13:11:29.143Z,12.43
2023-04-16T13:14:00.980Z,13.43
2023-04-16T13:16:33.033Z,12.20
2023-04-16T13:19:05.435Z,12.83
2023-04-16T13:21:37.342Z,12.60
2023-04-16T13:24:09.069Z,12.73
2023-04-16T13:26:43.355Z,12.13
2023-04-16T13:29:15.455Z,13.30
2023-04-16T13:31:47.893Z,12.77
2023-04-16T13:34:20.230Z,14.10
2023-04-16T13:36:52.948Z,12.93
2023-04-16T13:39:25.393Z,13.27
2023-04-16T13:41:57.489Z,13.67
2023-04-16T13:44:29.619Z,13.53
2023-04-16T13:47:01.554Z,12.77
2023-04-16T13:49:35.936Z,13.37
2023-04-16T13:52:08.047Z,13.50
2023-04-16T13:54:40.565Z,13.93
2023-04-16T13:57:24.372Z,13.90
2023-04-16T13:59:56.406Z,14.37
2023-04-16T14:02:28.315Z,14.67
2023-04-16T14:05:00.295Z,14.37
2023-04-16T14:07:32.616Z,13.23
2023-04-16T14:10:04.762Z,13.83
2023-04-16T14:12:37.622Z,13.83
2023-04-16T14:15:10.336Z,13.17
2023-04-16T14:17:44.116Z,13.33
2023-04-16T14:20:15.935Z,12.13
2023-04-16T14:22:47.856Z,13.90
2023-04-16T14:25:19.580Z,13.00
2023-04-16T14:27:51.499Z,12.87
2023-04-16T14:30:23.302Z,12.73
2023-04-16T14:32:55.101Z,12.73
2023-04-16T14:35:27.251Z,12.73
2023-04-16T14:37:59.186Z,14.03
2023-04-16T14:40:31.350Z,12.83
2023-04-16T14:43:03.233Z,13.67
2023-04-16T14:45:35.363Z,13.70
2023-04-16T14:48:07.749Z,12.33
2023-04-16T14:50:43.578Z,12.67
2023-04-16T14:53:16.079Z,13.03
2023-04-16T14:55:48.252Z,13.43
2023-04-16T14:58:20.514Z,13.50
2023-04-16T15:00:52.598Z,13.73
2023-04-16T15:03:25.630Z,13.63
2023-04-16T15:05:58.442Z,15.10
2023-04-16T15:08:30.265Z,15.33
2023-04-16T15:11:02.268Z,13.67
2023-04-16T15:13:34.431Z,13.80
2023-04-16T15:16:06.421Z,14.57
2023-04-16T15:18:38.351Z,15.07
2023-04-16T15:21:12.407Z,16.40
2023-04-16T15:23:44.558Z,15.35
2023-04-16T15:26:16.351Z,14.53
2023-04-16T15:28:48.090Z,15.43
2023-04-16T15:31:21.029Z,14.50
2023-04-16T15:33:54.443Z,15.67
2023-04-16T15:36:26.797Z,14.90
2023-04-16T15:38:58.974Z,16.37
2023-04-16T15:41:31.885Z,15.43
2023-04-16T15:44:03.646Z,15.43
2023-04-16T15:46:35.514Z,14.37
2023-04-16T15:49:07.293Z,15.00
2023-04-16T15:51:39.752Z,15.10
2023-04-16T15:54:11.439Z,14.63
2023-04-16T15:56:43.448Z,15.10
2023-04-16T15:59:15.369Z,15.33
2023-04-16T16:01:47.519Z,14.13
2023-04-16T16:04:21.803Z,13.97
2023-04-16T16:06:54.561Z,15.20
2023-04-16T16:09:26.773Z,13.63
2023-04-16T16:12:02.094Z,14.10
2023-04-16T16:14:34.174Z,13.70
2023-04-16T16:17:06.091Z,13.50
2023-04-16T16:19:38.024Z,13.40
2023-04-16T16:22:10.374Z,14.27
2023-04-16T16:24:42.416Z,14.00
2023-04-16T16:27:14.423Z,14.73
2023-04-16T16:29:46.808Z,15.23
2023-04-16T16:32:19.009Z,14.20
2023-04-16T16:34:51.157Z,14.70
2023-04-16T16:37:22.943Z,14.13
2023-04-16T16:39:54.820Z,14.60
2023-04-16T16:42:27.310Z,13.13
2023-04-16T16:44:59.259Z,14.50
2023-04-16T16:47:32.827Z,14.50
2023-04-16T16:50:05.981Z,14.67
2023-04-16T16:52:38.676Z,14.53
2023-04-16T16:55:11.211Z,13.30
2023-04-16T16:57:43.386Z,14.20
2023-04-16T17:00:20.306Z,13.57
2023-04-16T17:02:52.864Z,13.50
2023-04-16T17:05:25.429Z,14.03
2023-04-16T17:07:57.275Z,13.27
2023-04-16T17:10:29.197Z,14.03
2023-04-16T17:13:01.542Z,12.87
2023-04-16T17:15:33.520Z,14.30
2023-04-16T17:18:05.449Z,14.23
2023-04-16T17:20:38.732Z,13.37
2023-04-16T17:23:11.063Z,14.20
2023-04-16T17:25:43.366Z,14.13
2023-04-16T17:28:15.427Z,14.33
2023-04-16T17:30:51.993Z,14.43
2023-04-16T17:33:23.882Z,13.90
2023-04-16T17:35:56.040Z,13.77
2023-04-16T17:38:28.113Z,13.83
2023-04-16T17:41:00.312Z,14.33
2023-04-16T17:43:32.052Z,13.83
2023-04-16T17:46:04.178Z,15.13
2023-04-16T17:48:36.513Z,13.87
2023-04-16T17:51:12.166Z,15.37
2023-04-16T17:53:44.670Z,15.03
2023-04-16T17:56:16.597Z,15.87
2023-04-16T17:58:48.403Z,14.37
2023-04-16T18:01:20.482Z,14.33
2023-04-16T18:03:52.469Z,14.87
2023-04-16T18:06:24.613Z,15.63
2023-04-16T18:08:56.776Z,15.10
2023-04-16T18:11:30.634Z,15.87
2023-04-16T18:14:02.980Z,15.05
2023-04-16T18:16:35.360Z,15.63
2023-04-16T18:19:07.195Z,15.27
2023-04-16T18:21:39.666Z,16.00
2023-04-16T18:24:11.791Z,15.20
2023-04-16T18:26:46.861Z,16.53
2023-04-16T18:29:19.364Z,15.57
2023-04-16T18:31:51.498Z,14.77
2023-04-16T18:34:25.559Z,15.17
2023-04-16T18:36:57.496Z,15.23
2023-04-16T18:39:33.521Z,15.53
2023-04-16T18:44:36.934Z,15.00
2023-04-16T18:47:10.560Z,15.90
2023-04-16T18:49:42.285Z,15.73
2023-04-16T18:52:14.021Z,15.27
2023-04-16T18:54:45.982Z,15.73
2023-04-16T18:57:17.667Z,15.93
2023-04-16T18:59:49.442Z,15.50
2023-04-16T19:02:21.163Z,15.70
2023-04-16T19:04:53.003Z,16.43
2023-04-16T19:07:25.731Z,15.30
2023-04-16T19:09:58.683Z,16.40
2023-04-16T19:12:31.718Z,16.67
2023-04-16T19:15:04.794Z,16.87
2023-04-16T19:17:36.708Z,16.53
2023-04-16T19:20:11.249Z,17.53
2023-04-16T19:22:43.917Z,17.67
2023-04-16T19:25:15.746Z,16.97
2023-04-16T19:27:47.837Z,17.67
2023-04-16T19:30:20.690Z,17.47
2023-04-16T19:32:55.134Z,17.63
2023-04-16T19:37:59.767Z,16.93
2023-04-16T19:40:31.575Z,17.00
2023-04-16T19:43:03.667Z,17.97
2023-04-16T19:45:35.588Z,18.33
2023-04-16T19:48:07.390Z,18.03
2023-04-16T19:50:42.987Z,18.67
2023-04-16T19:53:17.194Z,19.73
2023-04-16T19:55:50.416Z,17.87
2023-04-16T19:58:22.073Z,18.53
2023-04-16T20:00:53.807Z,18.20
2023-04-16T20:03:25.698Z,17.50
2023-04-16T20:05:57.417Z,17.33
2023-04-16T20:08:29.582Z,17.10
2023-04-16T20:11:01.932Z,17.83
2023-04-16T20:13:33.663Z,17.50
2023-04-16T20:16:05.784Z,18.77
2023-04-16T20:18:41.478Z,19.00
2023-04-16T20:21:13.467Z,18.37
2023-04-16T20:23:45.170Z,18.97
2023-04-16T20:26:18.322Z,18.93
2023-04-16T20:28:50.003Z,18.77
2023-04-16T20:31:21.718Z,17.57
2023-04-16T20:33:54.256Z,17.97
2023-04-16T20:36:26.143Z,17.37
2023-04-16T20:38:59.412Z,19.47
2023-04-16T20:41:32.651Z,18.27
2023-04-16T20:44:05.323Z,18.93
2023-04-16T20:46:40.201Z,18.37
2023-04-16T20:51:45.579Z,18.07
2023-04-16T20:54:18.123Z,18.47
2023-04-16T20:56:50.358Z,18.60
2023-04-16T20:59:22.089Z,18.90
2023-04-16T21:01:55.014Z,19.87
2023-04-16T21:04:26.790Z,20.17
2023-04-16T21:06:58.579Z,20.30
2023-04-16T21:09:31.055Z,19.33
2023-04-16T21:12:02.876Z,19.63
2023-04-16T21:14:34.772Z,18.33
2023-04-16T21:17:06.468Z,18.50
2023-04-16T21:19:38.101Z,18.97
2023-04-16T21:22:09.982Z,19.20
2023-04-16T21:24:41.795Z,19.53
2023-04-16T21:27:15.051Z,20.13
2023-04-16T21:29:46.875Z,20.83
2023-04-16T21:32:20.645Z,20.17
2023-04-16T21:34:52.381Z,20.60
2023-04-16T21:37:24.104Z,19.60
2023-04-16T21:39:55.783Z,20.43
2023-04-16T21:42:27.603Z,22.27
2023-04-16T21:44:59.636Z,20.40
2023-04-16T21:47:31.493Z,20.03
2023-04-16T21:50:03.858Z,20.20
2023-04-16T21:52:40.752Z,20.13
2023-04-16T21:55:14.438Z,21.90
2023-04-16T21:57:46.952Z,20.63
2023-04-16T22:00:19.031Z,20.03
2023-04-16T22:02:56.169Z,21.70
2023-04-16T22:05:28.172Z,20.63
2023-04-16T22:08:02.570Z,21.00
2023-04-16T22:10:40.048Z,19.87
2023-04-16T22:13:13.791Z,19.97
2023-04-16T22:15:45.576Z,21.43
2023-04-16T22:18:18.157Z,20.90
2023-04-16T22:20:51.014Z,20.07
2023-04-16T22:23:24.959Z,21.27
2023-04-16T22:25:56.730Z,21.52
2023-04-16T22:28:29.217Z,21.30
2023-04-16T22:31:02.164Z,21.10
2023-04-16T22:33:34.620Z,20.97
2023-04-16T22:36:07.577Z,20.73
2023-04-16T22:38:39.745Z,20.80
2023-04-16T22:41:11.456Z,21.27
2023-04-16T22:43:43.237Z,20.20
2023-04-16T22:46:14.924Z,20.73
2023-04-16T22:48:47.156Z,21.23
2023-04-16T22:51:18.778Z,22.30
2023-04-16T22:53:51.920Z,21.87
2023-04-16T22:56:28.597Z,21.67
2023-04-16T22:59:01.157Z,21.13
2023-04-16T23:01:34.674Z,20.17
2023-04-16T23:04:06.369Z,20.07
2023-04-16T23:06:40.578Z,20.20
2023-04-16T23:09:12.500Z,21.00
2023-04-16T23:11:44.469Z,21.10
2023-04-16T23:14:16.977Z,20.77
2023-04-16T23:16:48.735Z,21.13
2023-04-16T23:19:20.515Z,22.50
2023-04-16T23:21:52.171Z,20.87
2023-04-16T23:24:23.931Z,21.00
2023-04-16T23:26:56.236Z,20.13
2023-04-16T23:29:27.971Z,20.87
2023-04-16T23:32:00.497Z,20.10
2023-04-16T23:34:32.220Z,20.13
2023-04-16T23:37:03.871Z,20.17
2023-04-16T23:39:35.902Z,20.47
2023-04-16T23:42:08.633Z,20.03
2023-04-16T23:44:40.543Z,22.47
2023-04-16T23:47:13.272Z,20.97
2023-04-16T23:49:45.077Z,20.87
2023-04-16T23:52:16.717Z,21.00
2023-04-16T23:54:48.600Z,22.40
2023-04-16T23:57:20.355Z,21.50
2023-04-16T23:59:53.582Z,20.90
